<?xml version="1.0" encoding="UTF-8" standalone="no" ?>
<gpx xmlns="http://www.topografix.com/GPX/1/1" xmlns:xsi="http://www.w3.org/2001/XMLSchema-instance" xsi:schemaLocation="http://www.topografix.com/GPX/1/1 http://www.topografix.com/GPX/1/1/gpx.xsd" version="1.1" creator="VisuGPX - https://www.visugpx.com">
  <metadata>
    <name>Peyres en Aubrac 24km</name>
    <desc><![CDATA[fait le 05/2019 - au départ des Chalets de Nozières]]></desc>
  </metadata>
  <trk>
    <name><![CDATA[chgt Grand Viala Le Vieux 24 km]]></name>
    <extensions>
      <line xmlns="http://www.topografix.com/GPX/gpx_style/0/2">
        <color>0000FF</color>
        <width>4</width>
      </line>
    </extensions>
    <trkseg>
      <trkpt lat="44.74137" lon="3.26134">
        <ele>1045</ele>
        <time>2019-02-17T17:44:01Z</time>
      </trkpt>
      <trkpt lat="44.74113" lon="3.26028">
        <ele>1044</ele>
        <time>2019-02-17T17:45:01Z</time>
      </trkpt>
      <trkpt lat="44.74124" lon="3.2591">
        <ele>1049</ele>
        <time>2019-02-17T17:46:01Z</time>
      </trkpt>
      <trkpt lat="44.74139" lon="3.25758">
        <ele>1053</ele>
        <time>2019-02-17T17:47:01Z</time>
      </trkpt>
      <trkpt lat="44.73943" lon="3.25538">
        <ele>1066</ele>
        <time>2019-02-17T17:48:01Z</time>
      </trkpt>
      <trkpt lat="44.73865" lon="3.25336">
        <ele>1067</ele>
        <time>2019-02-17T17:49:01Z</time>
      </trkpt>
      <trkpt lat="44.73811" lon="3.25195">
        <ele>1070</ele>
        <time>2019-02-17T17:50:01Z</time>
      </trkpt>
      <trkpt lat="44.73801" lon="3.25075">
        <ele>1077</ele>
        <time>2019-02-17T17:51:01Z</time>
      </trkpt>
      <trkpt lat="44.73719" lon="3.25001">
        <ele>1087</ele>
        <time>2019-02-17T17:52:01Z</time>
      </trkpt>
      <trkpt lat="44.73639" lon="3.24854">
        <ele>1092</ele>
        <time>2019-02-17T17:53:01Z</time>
      </trkpt>
      <trkpt lat="44.73346" lon="3.24676">
        <ele>1105</ele>
        <time>2019-02-17T17:54:01Z</time>
      </trkpt>
      <trkpt lat="44.73326" lon="3.24591">
        <ele>1111</ele>
        <time>2019-02-17T17:55:01Z</time>
      </trkpt>
      <trkpt lat="44.73303" lon="3.24588">
        <ele>1111</ele>
        <time>2019-02-17T17:56:01Z</time>
      </trkpt>
      <trkpt lat="44.73175" lon="3.24403">
        <ele>1118</ele>
        <time>2019-02-17T17:58:01Z</time>
      </trkpt>
      <trkpt lat="44.73152" lon="3.24326">
        <ele>1120</ele>
        <time>2019-02-17T17:59:01Z</time>
      </trkpt>
      <trkpt lat="44.73156" lon="3.24141">
        <ele>1124</ele>
        <time>2019-02-17T18:01:01Z</time>
      </trkpt>
      <trkpt lat="44.73128" lon="3.24004">
        <ele>1125</ele>
        <time>2019-02-17T18:02:01Z</time>
      </trkpt>
      <trkpt lat="44.72997" lon="3.23893">
        <ele>1121</ele>
        <time>2019-02-17T18:04:01Z</time>
      </trkpt>
      <trkpt lat="44.72902" lon="3.23851">
        <ele>1122</ele>
        <time>2019-02-17T18:05:01Z</time>
      </trkpt>
      <trkpt lat="44.72809" lon="3.23745">
        <ele>1126</ele>
        <time>2019-02-17T18:06:01Z</time>
      </trkpt>
      <trkpt lat="44.72665" lon="3.23648">
        <ele>1130</ele>
        <time>2019-02-17T18:07:01Z</time>
      </trkpt>
      <trkpt lat="44.7255" lon="3.2352">
        <ele>1130</ele>
        <time>2019-02-17T18:09:01Z</time>
      </trkpt>
      <trkpt lat="44.72386" lon="3.23368">
        <ele>1130</ele>
        <time>2019-02-17T18:10:01Z</time>
      </trkpt>
      <trkpt lat="44.72324" lon="3.23238">
        <ele>1125</ele>
        <time>2019-02-17T18:11:01Z</time>
      </trkpt>
      <trkpt lat="44.72238" lon="3.23174">
        <ele>1130</ele>
        <time>2019-02-17T18:12:01Z</time>
      </trkpt>
      <trkpt lat="44.72121" lon="3.22986">
        <ele>1138</ele>
        <time>2019-02-17T18:13:01Z</time>
      </trkpt>
      <trkpt lat="44.71977" lon="3.2288">
        <ele>1151</ele>
        <time>2019-02-17T18:14:01Z</time>
      </trkpt>
      <trkpt lat="44.71845" lon="3.22734">
        <ele>1155</ele>
        <time>2019-02-17T18:15:01Z</time>
      </trkpt>
      <trkpt lat="44.71711" lon="3.22646">
        <ele>1147</ele>
        <time>2019-02-17T18:16:01Z</time>
      </trkpt>
      <trkpt lat="44.71599" lon="3.22497">
        <ele>1125</ele>
        <time>2019-02-17T18:17:01Z</time>
      </trkpt>
      <trkpt lat="44.71535" lon="3.22473">
        <ele>1116</ele>
        <time>2019-02-17T18:18:01Z</time>
      </trkpt>
      <trkpt lat="44.71524" lon="3.22312">
        <ele>1113</ele>
        <time>2019-02-17T18:19:01Z</time>
      </trkpt>
      <trkpt lat="44.71474" lon="3.22215">
        <ele>1114</ele>
        <time>2019-02-17T18:20:01Z</time>
      </trkpt>
      <trkpt lat="44.71328" lon="3.21988">
        <ele>1128</ele>
        <time>2019-02-17T18:21:01Z</time>
      </trkpt>
      <trkpt lat="44.71224" lon="3.21948">
        <ele>1133</ele>
        <time>2019-02-17T18:22:01Z</time>
      </trkpt>
      <trkpt lat="44.71168" lon="3.21833">
        <ele>1139</ele>
        <time>2019-02-17T18:23:01Z</time>
      </trkpt>
      <trkpt lat="44.71179" lon="3.21634">
        <ele>1144</ele>
        <time>2019-02-17T18:24:01Z</time>
      </trkpt>
      <trkpt lat="44.71032" lon="3.21373">
        <ele>1148</ele>
        <time>2019-02-17T18:25:01Z</time>
      </trkpt>
      <trkpt lat="44.70957" lon="3.2098">
        <ele>1140</ele>
        <time>2019-02-17T18:26:01Z</time>
      </trkpt>
      <trkpt lat="44.70905" lon="3.20649">
        <ele>1132</ele>
        <time>2019-02-17T18:27:01Z</time>
      </trkpt>
      <trkpt lat="44.70845" lon="3.20564">
        <ele>1132</ele>
        <time>2019-02-17T18:28:01Z</time>
      </trkpt>
      <trkpt lat="44.70834" lon="3.20434">
        <ele>1128</ele>
        <time>2019-02-17T18:29:01Z</time>
      </trkpt>
      <trkpt lat="44.70791" lon="3.20343">
        <ele>1131</ele>
        <time>2019-02-17T18:30:01Z</time>
      </trkpt>
      <trkpt lat="44.70715" lon="3.20252">
        <ele>1136</ele>
        <time>2019-02-17T18:31:01Z</time>
      </trkpt>
      <trkpt lat="44.70707" lon="3.20088">
        <ele>1146</ele>
        <time>2019-02-17T18:32:01Z</time>
      </trkpt>
      <trkpt lat="44.70633" lon="3.19903">
        <ele>1159</ele>
        <time>2019-02-17T18:33:01Z</time>
      </trkpt>
      <trkpt lat="44.70679" lon="3.19727">
        <ele>1168</ele>
        <time>2019-02-17T18:34:01Z</time>
      </trkpt>
      <trkpt lat="44.70694" lon="3.19508">
        <ele>1172</ele>
        <time>2019-02-17T18:35:01Z</time>
      </trkpt>
      <trkpt lat="44.70674" lon="3.19276">
        <ele>1175</ele>
        <time>2019-02-17T18:36:01Z</time>
      </trkpt>
      <trkpt lat="44.70668" lon="3.19035">
        <ele>1174</ele>
        <time>2019-02-17T18:37:01Z</time>
      </trkpt>
      <trkpt lat="44.70687" lon="3.18874">
        <ele>1176</ele>
        <time>2019-02-17T18:38:01Z</time>
      </trkpt>
      <trkpt lat="44.70748" lon="3.18721">
        <ele>1177</ele>
        <time>2019-02-17T18:39:01Z</time>
      </trkpt>
      <trkpt lat="44.70842" lon="3.18651">
        <ele>1176</ele>
        <time>2019-02-17T18:40:01Z</time>
      </trkpt>
      <trkpt lat="44.70911" lon="3.18496">
        <ele>1174</ele>
        <time>2019-02-17T18:41:01Z</time>
      </trkpt>
      <trkpt lat="44.7097" lon="3.18437">
        <ele>1171</ele>
        <time>2019-02-17T18:42:01Z</time>
      </trkpt>
      <trkpt lat="44.71213" lon="3.18328">
        <ele>1178</ele>
        <time>2019-02-17T18:44:01Z</time>
      </trkpt>
      <trkpt lat="44.71306" lon="3.18285">
        <ele>1180</ele>
        <time>2019-02-17T18:45:01Z</time>
      </trkpt>
      <trkpt lat="44.71455" lon="3.18119">
        <ele>1176</ele>
        <time>2019-02-17T18:47:01Z</time>
      </trkpt>
      <trkpt lat="44.71481" lon="3.17864">
        <ele>1170</ele>
        <time>2019-02-17T18:49:01Z</time>
      </trkpt>
      <trkpt lat="44.71543" lon="3.17767">
        <ele>1164</ele>
        <time>2019-02-17T18:50:01Z</time>
      </trkpt>
      <trkpt lat="44.71789" lon="3.17527">
        <ele>1151</ele>
        <time>2019-02-17T18:51:01Z</time>
      </trkpt>
      <trkpt lat="44.71884" lon="3.17478">
        <ele>1150</ele>
        <time>2019-02-17T18:52:01Z</time>
      </trkpt>
      <trkpt lat="44.71944" lon="3.17316">
        <ele>1154</ele>
        <time>2019-02-17T18:53:01Z</time>
      </trkpt>
      <trkpt lat="44.71939" lon="3.17184">
        <ele>1152</ele>
        <time>2019-02-17T18:54:01Z</time>
      </trkpt>
      <trkpt lat="44.71983" lon="3.17073">
        <ele>1152</ele>
        <time>2019-02-17T18:55:01Z</time>
      </trkpt>
      <trkpt lat="44.72231" lon="3.16943">
        <ele>1170</ele>
        <time>2019-02-17T18:56:01Z</time>
      </trkpt>
      <trkpt lat="44.72273" lon="3.16958">
        <ele>1174</ele>
        <time>2019-02-17T18:57:01Z</time>
      </trkpt>
      <trkpt lat="44.72393" lon="3.16836">
        <ele>1193</ele>
        <time>2019-02-17T18:59:01Z</time>
      </trkpt>
      <trkpt lat="44.72273" lon="3.16738">
        <ele>1183</ele>
        <time>2019-02-17T19:00:01Z</time>
      </trkpt>
      <trkpt lat="44.72287" lon="3.16827">
        <ele>1177</ele>
        <time>2019-02-17T19:01:01Z</time>
      </trkpt>
      <trkpt lat="44.72231" lon="3.16938">
        <ele>1170</ele>
        <time>2019-02-17T19:02:01Z</time>
      </trkpt>
      <trkpt lat="44.72271" lon="3.16958">
        <ele>1174</ele>
        <time>2019-02-17T19:03:01Z</time>
      </trkpt>
      <trkpt lat="44.72301" lon="3.16938">
        <ele>1179</ele>
        <time>2019-02-17T19:04:01Z</time>
      </trkpt>
      <trkpt lat="44.724" lon="3.16833">
        <ele>1194</ele>
        <time>2019-02-17T19:05:01Z</time>
      </trkpt>
      <trkpt lat="44.72522" lon="3.16827">
        <ele>1197</ele>
        <time>2019-02-17T19:06:01Z</time>
      </trkpt>
      <trkpt lat="44.72481" lon="3.16903">
        <ele>1190</ele>
        <time>2019-02-17T19:07:01Z</time>
      </trkpt>
      <trkpt lat="44.72511" lon="3.17047">
        <ele>1179</ele>
        <time>2019-02-17T19:08:01Z</time>
      </trkpt>
      <trkpt lat="44.72511" lon="3.17369">
        <ele>1170</ele>
        <time>2019-02-17T19:10:01Z</time>
      </trkpt>
      <trkpt lat="44.72533" lon="3.17767">
        <ele>1161</ele>
        <time>2019-02-17T19:12:01Z</time>
      </trkpt>
      <trkpt lat="44.72578" lon="3.18149">
        <ele>1155</ele>
        <time>2019-02-17T19:13:01Z</time>
      </trkpt>
      <trkpt lat="44.72794" lon="3.1837">
        <ele>1150</ele>
        <time>2019-02-17T19:15:01Z</time>
      </trkpt>
      <trkpt lat="44.72602" lon="3.18414">
        <ele>1160</ele>
        <time>2019-02-17T19:16:01Z</time>
      </trkpt>
      <trkpt lat="44.72639" lon="3.18549">
        <ele>1158</ele>
        <time>2019-02-17T19:17:01Z</time>
      </trkpt>
      <trkpt lat="44.72626" lon="3.18692">
        <ele>1156</ele>
        <time>2019-02-17T19:18:01Z</time>
      </trkpt>
      <trkpt lat="44.72645" lon="3.18809">
        <ele>1151</ele>
        <time>2019-02-17T19:19:01Z</time>
      </trkpt>
      <trkpt lat="44.72578" lon="3.18859">
        <ele>1150</ele>
        <time>2019-02-17T19:20:01Z</time>
      </trkpt>
      <trkpt lat="44.72542" lon="3.18958">
        <ele>1143</ele>
        <time>2019-02-17T19:21:01Z</time>
      </trkpt>
      <trkpt lat="44.72559" lon="3.19073">
        <ele>1141</ele>
        <time>2019-02-17T19:22:01Z</time>
      </trkpt>
      <trkpt lat="44.72643" lon="3.19109">
        <ele>1144</ele>
        <time>2019-02-17T19:23:01Z</time>
      </trkpt>
      <trkpt lat="44.72684" lon="3.19213">
        <ele>1144</ele>
        <time>2019-02-17T19:24:01Z</time>
      </trkpt>
      <trkpt lat="44.72822" lon="3.19258">
        <ele>1160</ele>
        <time>2019-02-17T19:25:01Z</time>
      </trkpt>
      <trkpt lat="44.72846" lon="3.19319">
        <ele>1159</ele>
        <time>2019-02-17T19:26:01Z</time>
      </trkpt>
      <trkpt lat="44.72884" lon="3.19317">
        <ele>1162</ele>
        <time>2019-02-17T19:27:01Z</time>
      </trkpt>
      <trkpt lat="44.72891" lon="3.19416">
        <ele>1155</ele>
        <time>2019-02-17T19:28:01Z</time>
      </trkpt>
      <trkpt lat="44.72932" lon="3.19522">
        <ele>1144</ele>
        <time>2019-02-17T19:30:01Z</time>
      </trkpt>
      <trkpt lat="44.73009" lon="3.19609">
        <ele>1140</ele>
        <time>2019-02-17T19:31:01Z</time>
      </trkpt>
      <trkpt lat="44.73035" lon="3.1969">
        <ele>1134</ele>
        <time>2019-02-17T19:32:01Z</time>
      </trkpt>
      <trkpt lat="44.73078" lon="3.19829">
        <ele>1134</ele>
        <time>2019-02-17T19:33:01Z</time>
      </trkpt>
      <trkpt lat="44.72953" lon="3.19906">
        <ele>1131</ele>
        <time>2019-02-17T19:34:01Z</time>
      </trkpt>
      <trkpt lat="44.72818" lon="3.2017">
        <ele>1135</ele>
        <time>2019-02-17T19:35:01Z</time>
      </trkpt>
      <trkpt lat="44.72751" lon="3.20161">
        <ele>1132</ele>
        <time>2019-02-17T19:36:01Z</time>
      </trkpt>
      <trkpt lat="44.72626" lon="3.2025">
        <ele>1134</ele>
        <time>2019-02-17T19:38:01Z</time>
      </trkpt>
      <trkpt lat="44.72579" lon="3.20226">
        <ele>1132</ele>
        <time>2019-02-17T19:39:01Z</time>
      </trkpt>
      <trkpt lat="44.72491" lon="3.20296">
        <ele>1134</ele>
        <time>2019-02-17T19:41:01Z</time>
      </trkpt>
      <trkpt lat="44.72438" lon="3.2037">
        <ele>1132</ele>
        <time>2019-02-17T19:42:01Z</time>
      </trkpt>
      <trkpt lat="44.72364" lon="3.20533">
        <ele>1136</ele>
        <time>2019-02-17T19:43:01Z</time>
      </trkpt>
      <trkpt lat="44.72263" lon="3.2066">
        <ele>1137</ele>
        <time>2019-02-17T19:44:01Z</time>
      </trkpt>
      <trkpt lat="44.72209" lon="3.20781">
        <ele>1139</ele>
        <time>2019-02-17T19:45:01Z</time>
      </trkpt>
      <trkpt lat="44.72197" lon="3.20865">
        <ele>1138</ele>
        <time>2019-02-17T19:46:01Z</time>
      </trkpt>
      <trkpt lat="44.71998" lon="3.21126">
        <ele>1115</ele>
        <time>2019-02-17T19:47:01Z</time>
      </trkpt>
      <trkpt lat="44.7185" lon="3.21059">
        <ele>1109</ele>
        <time>2019-02-17T19:48:01Z</time>
      </trkpt>
      <trkpt lat="44.71873" lon="3.20845">
        <ele>1106</ele>
        <time>2019-02-17T19:49:01Z</time>
      </trkpt>
      <trkpt lat="44.71873" lon="3.21039">
        <ele>1110</ele>
        <time>2019-02-17T19:50:01Z</time>
      </trkpt>
      <trkpt lat="44.72005" lon="3.21097">
        <ele>1116</ele>
        <time>2019-02-17T19:51:01Z</time>
      </trkpt>
      <trkpt lat="44.71886" lon="3.2161">
        <ele>1103</ele>
        <time>2019-02-17T19:52:01Z</time>
      </trkpt>
      <trkpt lat="44.71919" lon="3.21701">
        <ele>1102</ele>
        <time>2019-02-17T19:53:01Z</time>
      </trkpt>
      <trkpt lat="44.7208" lon="3.21869">
        <ele>1115</ele>
        <time>2019-02-17T19:54:01Z</time>
      </trkpt>
      <trkpt lat="44.72117" lon="3.21945">
        <ele>1112</ele>
        <time>2019-02-17T19:55:01Z</time>
      </trkpt>
      <trkpt lat="44.72203" lon="3.21972">
        <ele>1112</ele>
        <time>2019-02-17T19:56:01Z</time>
      </trkpt>
      <trkpt lat="44.72253" lon="3.22067">
        <ele>1110</ele>
        <time>2019-02-17T19:57:01Z</time>
      </trkpt>
      <trkpt lat="44.72309" lon="3.22112">
        <ele>1114</ele>
        <time>2019-02-17T19:58:01Z</time>
      </trkpt>
      <trkpt lat="44.72393" lon="3.22115">
        <ele>1118</ele>
        <time>2019-02-17T19:59:01Z</time>
      </trkpt>
      <trkpt lat="44.7246" lon="3.22145">
        <ele>1118</ele>
        <time>2019-02-17T20:00:01Z</time>
      </trkpt>
      <trkpt lat="44.72511" lon="3.22236">
        <ele>1113</ele>
        <time>2019-02-17T20:01:01Z</time>
      </trkpt>
      <trkpt lat="44.72684" lon="3.22391">
        <ele>1108</ele>
        <time>2019-02-17T20:04:01Z</time>
      </trkpt>
      <trkpt lat="44.72701" lon="3.22382">
        <ele>1111</ele>
        <time>2019-02-17T20:05:01Z</time>
      </trkpt>
      <trkpt lat="44.72746" lon="3.22434">
        <ele>1110</ele>
        <time>2019-02-17T20:06:01Z</time>
      </trkpt>
      <trkpt lat="44.72966" lon="3.22466">
        <ele>1107</ele>
        <time>2019-02-17T20:08:01Z</time>
      </trkpt>
      <trkpt lat="44.731" lon="3.22384">
        <ele>1123</ele>
        <time>2019-02-17T20:09:01Z</time>
      </trkpt>
      <trkpt lat="44.73087" lon="3.22211">
        <ele>1138</ele>
        <time>2019-02-17T20:10:01Z</time>
      </trkpt>
      <trkpt lat="44.73419" lon="3.22487">
        <ele>1110</ele>
        <time>2019-02-17T20:11:01Z</time>
      </trkpt>
      <trkpt lat="44.73546" lon="3.22337">
        <ele>1096</ele>
        <time>2019-02-17T20:12:01Z</time>
      </trkpt>
      <trkpt lat="44.7363" lon="3.22283">
        <ele>1081</ele>
        <time>2019-02-17T20:13:01Z</time>
      </trkpt>
      <trkpt lat="44.73723" lon="3.22364">
        <ele>1076</ele>
        <time>2019-02-17T20:14:01Z</time>
      </trkpt>
      <trkpt lat="44.73811" lon="3.22511">
        <ele>1066</ele>
        <time>2019-02-17T20:15:01Z</time>
      </trkpt>
      <trkpt lat="44.7398" lon="3.22337">
        <ele>1069</ele>
        <time>2019-02-17T20:16:01Z</time>
      </trkpt>
      <trkpt lat="44.74046" lon="3.22327">
        <ele>1075</ele>
        <time>2019-02-17T20:17:01Z</time>
      </trkpt>
      <trkpt lat="44.74128" lon="3.22324">
        <ele>1081</ele>
        <time>2019-02-17T20:18:01Z</time>
      </trkpt>
      <trkpt lat="44.74184" lon="3.22406">
        <ele>1080</ele>
        <time>2019-02-17T20:19:01Z</time>
      </trkpt>
      <trkpt lat="44.74314" lon="3.22459">
        <ele>1085</ele>
        <time>2019-02-17T20:20:01Z</time>
      </trkpt>
      <trkpt lat="44.74227" lon="3.22588">
        <ele>1069</ele>
        <time>2019-02-17T20:22:01Z</time>
      </trkpt>
      <trkpt lat="44.74193" lon="3.22692">
        <ele>1063</ele>
        <time>2019-02-17T20:24:01Z</time>
      </trkpt>
      <trkpt lat="44.74152" lon="3.22771">
        <ele>1056</ele>
        <time>2019-02-17T20:25:01Z</time>
      </trkpt>
      <trkpt lat="44.7415" lon="3.22922">
        <ele>1050</ele>
        <time>2019-02-17T20:26:01Z</time>
      </trkpt>
      <trkpt lat="44.74221" lon="3.22986">
        <ele>1058</ele>
        <time>2019-02-17T20:27:01Z</time>
      </trkpt>
      <trkpt lat="44.74249" lon="3.23088">
        <ele>1068</ele>
        <time>2019-02-17T20:28:01Z</time>
      </trkpt>
      <trkpt lat="44.74275" lon="3.23247">
        <ele>1084</ele>
        <time>2019-02-17T20:29:01Z</time>
      </trkpt>
      <trkpt lat="44.74335" lon="3.23379">
        <ele>1098</ele>
        <time>2019-02-17T20:30:01Z</time>
      </trkpt>
      <trkpt lat="44.74305" lon="3.23491">
        <ele>1122</ele>
        <time>2019-02-17T20:31:01Z</time>
      </trkpt>
      <trkpt lat="44.74365" lon="3.23573">
        <ele>1126</ele>
        <time>2019-02-17T20:32:01Z</time>
      </trkpt>
      <trkpt lat="44.74378" lon="3.23711">
        <ele>1130</ele>
        <time>2019-02-17T20:33:01Z</time>
      </trkpt>
      <trkpt lat="44.74361" lon="3.24013">
        <ele>1135</ele>
        <time>2019-02-17T20:34:01Z</time>
      </trkpt>
      <trkpt lat="44.7429" lon="3.24163">
        <ele>1143</ele>
        <time>2019-02-17T20:35:01Z</time>
      </trkpt>
      <trkpt lat="44.74161" lon="3.24298">
        <ele>1130</ele>
        <time>2019-02-17T20:36:01Z</time>
      </trkpt>
      <trkpt lat="44.74208" lon="3.24549">
        <ele>1109</ele>
        <time>2019-02-17T20:37:01Z</time>
      </trkpt>
      <trkpt lat="44.74271" lon="3.24569">
        <ele>1106</ele>
        <time>2019-02-17T20:38:01Z</time>
      </trkpt>
      <trkpt lat="44.74294" lon="3.24617">
        <ele>1098</ele>
        <time>2019-02-17T20:39:01Z</time>
      </trkpt>
      <trkpt lat="44.74389" lon="3.24599">
        <ele>1099</ele>
        <time>2019-02-17T20:40:01Z</time>
      </trkpt>
      <trkpt lat="44.74469" lon="3.24687">
        <ele>1086</ele>
        <time>2019-02-17T20:41:01Z</time>
      </trkpt>
      <trkpt lat="44.74445" lon="3.24766">
        <ele>1072</ele>
        <time>2019-02-17T20:42:01Z</time>
      </trkpt>
      <trkpt lat="44.74493" lon="3.24842">
        <ele>1066</ele>
        <time>2019-02-17T20:43:01Z</time>
      </trkpt>
      <trkpt lat="44.74387" lon="3.2479">
        <ele>1064</ele>
        <time>2019-02-17T20:44:01Z</time>
      </trkpt>
      <trkpt lat="44.74408" lon="3.24863">
        <ele>1057</ele>
        <time>2019-02-17T20:45:01Z</time>
      </trkpt>
      <trkpt lat="44.74383" lon="3.24927">
        <ele>1049</ele>
        <time>2019-02-17T20:46:01Z</time>
      </trkpt>
      <trkpt lat="44.7443" lon="3.251">
        <ele>1037</ele>
        <time>2019-02-17T20:47:01Z</time>
      </trkpt>
      <trkpt lat="44.74596" lon="3.25203">
        <ele>1025</ele>
        <time>2019-02-17T20:48:01Z</time>
      </trkpt>
      <trkpt lat="44.74555" lon="3.25304">
        <ele>1028</ele>
        <time>2019-02-17T20:49:01Z</time>
      </trkpt>
      <trkpt lat="44.7449" lon="3.25371">
        <ele>1038</ele>
        <time>2019-02-17T20:50:01Z</time>
      </trkpt>
      <trkpt lat="44.7443" lon="3.25377">
        <ele>1043</ele>
        <time>2019-02-17T20:51:01Z</time>
      </trkpt>
      <trkpt lat="44.74432" lon="3.25438">
        <ele>1050</ele>
        <time>2019-02-17T20:52:01Z</time>
      </trkpt>
      <trkpt lat="44.74363" lon="3.25574">
        <ele>1064</ele>
        <time>2019-02-17T20:53:01Z</time>
      </trkpt>
      <trkpt lat="44.74169" lon="3.25746">
        <ele>1054</ele>
        <time>2019-02-17T20:54:01Z</time>
      </trkpt>
      <trkpt lat="44.74135" lon="3.25797">
        <ele>1049.8984375</ele>
      </trkpt>
      <trkpt lat="44.74112" lon="3.26013">
        <ele>1037.9375</ele>
      </trkpt>
      <trkpt lat="44.74128" lon="3.26119">
        <ele>1037.8125</ele>
      </trkpt>
    </trkseg>
  </trk>
</gpx>